Shell Beach, California
Current Conditions -  °F | °C
As of 7:56 AM on Thursday 23 Oct 2014 (Local Time) from KSBP Reporting Station
Clear Clear  
Wind Chill: 51°   Ceiling: Unl
Heat Index: 51°   Visibility: 10mi
Dew Point: 40°   Wind: 0mph
Humidity: 66%   Direction: NA
Pressure: 30"   Gusts: NA
Location:  35.1597°N, 120.657°W
Report Text: KSBP 231456Z 00000KT 10SM CLR 11/04 A3000 RMK AO2 SLP159 T01060044 53015
Loading
Personal Weather Stations






























Interactive Weather Map
Tropical Storm Tracking
New forecast layout! Learn more

10-Day Weather Forecast

Advertisements
Track Severe Weather on mobile